Time;durP1;ratioP1;P1;durP2;ratioP2;P2;SDS_P1;SDS_P2;PMS_P1;PMS_P2;Temp;Humidity;BMP_temperature;BMP_pressure;BME280_temperature;BME280_humidity;BME280_pressure;Samples;Min_cycle;Max_cycle;Signal;HPM_P1;HPM_P2
2023/11/17 00:01:25;;;;;;;4.40;4.40;;;5.80;99.90;;;;;;4994448;28;20472;-69
2023/11/17 00:03:53;;;;;;;5.30;5.20;;;5.70;99.90;;;;;;5006665;28;20824;-70
2023/11/17 00:06:21;;;;;;;5.97;5.87;;;5.60;99.90;;;;;;5003195;28;20530;-70
2023/11/17 00:08:49;;;;;;;5.27;5.17;;;5.60;99.90;;;;;;5004582;28;20466;-70
2023/11/17 00:11:17;;;;;;;4.87;4.87;;;5.60;99.90;;;;;;4997318;28;20462;-70
2023/11/17 00:13:44;;;;;;;5.13;5.03;;;5.60;99.90;;;;;;5023237;28;20479;-70
2023/11/17 00:16:12;;;;;;;4.77;4.77;;;5.50;99.90;;;;;;5007329;28;20540;-72
2023/11/17 00:18:40;;;;;;;5.03;5.00;;;5.50;99.90;;;;;;4999950;28;20857;-73
2023/11/17 00:21:07;;;;;;;5.47;5.37;;;5.40;99.90;;;;;;5000800;28;20964;-71
2023/11/17 00:23:33;;;;;;;5.13;5.07;;;5.40;99.90;;;;;;5008278;28;20557;-70
2023/11/17 00:26:00;;;;;;;5.20;5.10;;;5.50;99.90;;;;;;5002396;28;20496;-73
2023/11/17 00:28:31;;;;;;;5.33;5.23;;;5.40;99.90;;;;;;5006541;28;20457;-72
2023/11/17 00:30:58;;;;;;;5.67;5.57;;;5.40;99.90;;;;;;5000182;28;20625;-72
2023/11/17 00:33:26;;;;;;;5.50;5.40;;;5.30;99.90;;;;;;5007850;28;20457;-69
2023/11/17 00:35:53;;;;;;;5.40;5.30;;;5.30;99.90;;;;;;5001947;28;20472;-69
2023/11/17 00:38:20;;;;;;;5.20;5.10;;;5.30;99.90;;;;;;4994146;28;20473;-71
2023/11/17 00:40:46;;;;;;;5.50;5.40;;;5.30;99.90;;;;;;4996671;28;20460;-72
2023/11/17 00:43:13;;;;;;;5.13;5.07;;;5.20;99.90;;;;;;4995469;28;20558;-71
2023/11/17 00:45:40;;;;;;;5.43;5.33;;;5.20;99.90;;;;;;5021472;28;20488;-73
2023/11/17 00:48:07;;;;;;;5.53;5.43;;;5.30;99.90;;;;;;5004100;28;20555;-72
2023/11/17 00:50:37;;;;;;;6.17;6.07;;;5.30;99.90;;;;;;4997643;28;21046;-72
2023/11/17 00:53:05;;;;;;;4.70;4.70;;;5.30;99.90;;;;;;4997149;28;21213;-71
2023/11/17 00:55:33;;;;;;;5.33;5.23;;;5.20;99.90;;;;;;4993272;28;20492;-70
2023/11/17 00:58:00;;;;;;;4.73;4.73;;;5.20;99.90;;;;;;5003757;28;20461;-71
2023/11/17 01:00:27;;;;;;;4.37;4.37;;;5.10;99.90;;;;;;5003268;28;20823;-74
2023/11/17 01:02:55;;;;;;;4.47;4.47;;;5.00;99.90;;;;;;5004032;28;20654;-70
2023/11/17 01:05:22;;;;;;;4.13;4.13;;;5.00;99.90;;;;;;5005795;28;20462;-73
2023/11/17 01:07:50;;;;;;;4.33;4.33;;;5.00;99.90;;;;;;4990832;28;21146;-73
2023/11/17 01:10:17;;;;;;;5.30;5.20;;;4.90;99.90;;;;;;4999972;28;20508;-71
2023/11/17 01:12:44;;;;;;;5.60;5.50;;;4.80;99.90;;;;;;5013616;28;20461;-69
2023/11/17 01:15:13;;;;;;;4.93;4.93;;;4.80;99.90;;;;;;5000260;28;20472;-70
2023/11/17 01:17:42;;;;;;;6.03;5.93;;;4.80;99.90;;;;;;5007186;28;20467;-71
2023/11/17 01:20:10;;;;;;;5.87;5.77;;;4.80;99.90;;;;;;4998406;28;20478;-72
2023/11/17 01:22:39;;;;;;;6.47;6.37;;;4.80;99.90;;;;;;5005501;28;20455;-70
2023/11/17 01:25:08;;;;;;;6.03;5.93;;;4.70;99.90;;;;;;5003115;28;20846;-69
2023/11/17 01:27:36;;;;;;;5.60;5.50;;;4.70;99.90;;;;;;4998041;28;20500;-73
2023/11/17 01:30:04;;;;;;;6.03;5.93;;;4.60;99.90;;;;;;5002663;28;20470;-70
2023/11/17 01:32:31;;;;;;;6.30;6.20;;;4.50;99.90;;;;;;5001641;28;20474;-69
2023/11/17 01:34:58;;;;;;;6.20;6.10;;;4.50;99.90;;;;;;5002577;28;20470;-72
2023/11/17 01:37:26;;;;;;;6.67;6.57;;;4.50;99.90;;;;;;5003161;28;20462;-71
2023/11/17 01:39:52;;;;;;;6.70;6.60;;;4.40;99.90;;;;;;5006288;28;20492;-69
2023/11/17 01:42:21;;;;;;;6.70;6.60;;;4.40;99.90;;;;;;4990391;28;20486;-71
2023/11/17 01:44:49;;;;;;;6.70;6.60;;;4.40;99.90;;;;;;5003855;28;20490;-72
2023/11/17 01:47:20;;;;;;;7.00;6.90;;;4.40;99.90;;;;;;5006674;28;20492;-72
2023/11/17 01:49:50;;;;;;;6.53;6.43;;;4.30;99.90;;;;;;4996093;28;20471;-72
2023/11/17 01:52:17;;;;;;;7.47;7.37;;;4.30;99.90;;;;;;5006507;28;20458;-71
2023/11/17 01:54:48;;;;;;;7.17;7.07;;;4.30;99.90;;;;;;5001248;28;20486;-68
2023/11/17 01:57:16;;;;;;;7.10;7.00;;;4.20;99.90;;;;;;5001474;28;20450;-72
2023/11/17 01:59:44;;;;;;;7.00;6.90;;;4.10;99.90;;;;;;5006835;28;20458;-70
2023/11/17 02:02:11;;;;;;;6.80;6.70;;;4.00;99.90;;;;;;4994333;28;20993;-71
2023/11/17 02:04:38;;;;;;;7.00;6.90;;;4.00;99.90;;;;;;5004549;28;20483;-72
2023/11/17 02:07:12;;;;;;;7.00;6.90;;;4.00;99.90;;;;;;5006597;28;20816;-71
2023/11/17 02:09:46;;;;;;;6.70;6.60;;;4.00;99.90;;;;;;4995953;28;20465;-68
2023/11/17 02:12:23;;;;;;;7.13;7.03;;;4.10;99.90;;;;;;5001128;28;20564;-69
2023/11/17 02:14:56;;;;;;;6.90;6.80;;;4.20;99.90;;;;;;4998436;28;20464;-70
2023/11/17 02:17:28;;;;;;;6.77;6.67;;;4.30;99.90;;;;;;5004655;28;20454;-70
2023/11/17 02:19:59;;;;;;;7.13;7.03;;;4.30;99.90;;;;;;5001620;28;20893;-70
2023/11/17 02:22:30;;;;;;;6.70;6.60;;;4.40;99.90;;;;;;5006379;28;20465;-72
2023/11/17 02:25:10;;;;;;;6.67;6.57;;;4.50;99.90;;;;;;4990650;28;20604;-71
2023/11/17 02:27:45;;;;;;;7.40;7.30;;;4.50;99.90;;;;;;4994385;28;20493;-71
2023/11/17 02:30:19;;;;;;;7.00;6.90;;;4.50;99.90;;;;;;5004049;28;20751;-71
2023/11/17 02:32:48;;;;;;;7.40;7.30;;;4.50;99.90;;;;;;5000270;28;20466;-71
2023/11/17 02:35:16;;;;;;;7.00;6.90;;;4.60;99.90;;;;;;5003543;28;20956;-70
2023/11/17 02:37:43;;;;;;;6.90;6.80;;;4.60;99.90;;;;;;4996624;28;20606;-71
2023/11/17 02:40:18;;;;;;;6.73;6.63;;;4.60;99.90;;;;;;5006449;28;20469;-69
2023/11/17 02:42:47;;;;;;;7.00;6.90;;;4.60;99.90;;;;;;4990660;28;20469;-69
2023/11/17 02:45:19;;;;;;;7.30;7.20;;;4.70;99.90;;;;;;5028036;28;20458;-70
2023/11/17 02:47:48;;;;;;;6.60;6.50;;;4.70;99.90;;;;;;5021283;28;20944;-69
2023/11/17 02:50:21;;;;;;;7.23;7.13;;;4.70;99.90;;;;;;4993427;28;20467;-70
2023/11/17 02:53:06;;;;;;;6.60;6.50;;;4.80;99.90;;;;;;4998252;28;20466;-70
2023/11/17 02:55:37;;;;;;;7.10;7.00;;;4.60;99.90;;;;;;4993220;28;20530;-71
2023/11/17 02:58:04;;;;;;;6.20;6.10;;;4.70;99.90;;;;;;5004477;28;20959;-69
2023/11/17 03:00:33;;;;;;;6.50;6.40;;;4.70;99.90;;;;;;4998493;28;20481;-69
2023/11/17 03:02:59;;;;;;;6.70;6.60;;;4.70;99.90;;;;;;5011457;28;20831;-72
2023/11/17 03:05:27;;;;;;;8.00;7.90;;;4.70;99.90;;;;;;5006051;28;20476;-69
2023/11/17 03:07:54;;;;;;;7.70;7.60;;;4.80;99.90;;;;;;4998955;28;20514;-71
2023/11/17 03:10:22;;;;;;;7.13;7.03;;;4.80;99.90;;;;;;4999425;28;20471;-71
2023/11/17 03:12:55;;;;;;;6.63;6.53;;;4.80;99.90;;;;;;4987495;28;20489;-71
2023/11/17 03:15:22;;;;;;;6.33;6.23;;;4.70;99.90;;;;;;5001530;28;20460;-71
2023/11/17 03:17:51;;;;;;;7.00;6.90;;;4.70;99.90;;;;;;5005586;28;21236;-71
2023/11/17 03:20:19;;;;;;;6.23;6.13;;;4.70;99.90;;;;;;4990543;28;20489;-71
2023/11/17 03:22:46;;;;;;;7.17;7.07;;;4.70;99.90;;;;;;5000633;28;20472;-69
2023/11/17 03:25:15;;;;;;;6.90;6.80;;;4.70;99.90;;;;;;4990708;28;20950;-68
2023/11/17 03:27:43;;;;;;;7.80;7.70;;;4.80;99.90;;;;;;4997923;28;20830;-69
2023/11/17 03:30:11;;;;;;;7.63;7.53;;;4.90;99.90;;;;;;5004131;28;20491;-71
2023/11/17 03:32:38;;;;;;;7.70;7.60;;;4.90;99.90;;;;;;5009084;28;20805;-72
2023/11/17 03:35:06;;;;;;;7.27;7.17;;;4.90;99.90;;;;;;5000173;28;20458;-71
2023/11/17 03:37:33;;;;;;;7.57;7.47;;;4.90;99.90;;;;;;4999406;28;20476;-71
2023/11/17 03:40:06;;;;;;;7.40;7.30;;;4.90;99.90;;;;;;5008608;28;20583;-71
2023/11/17 03:42:34;;;;;;;9.10;8.90;;;4.80;99.90;;;;;;4999519;28;20555;-69
2023/11/17 03:45:07;;;;;;;8.77;8.67;;;4.90;99.90;;;;;;5017766;28;20507;-69
2023/11/17 03:47:34;;;;;;;8.80;8.70;;;5.00;99.90;;;;;;5009108;28;20514;-69
2023/11/17 03:50:02;;;;;;;8.57;8.47;;;5.00;99.90;;;;;;5020885;28;20477;-69
2023/11/17 03:52:32;;;;;;;7.80;7.70;;;5.10;99.90;;;;;;5008343;28;20550;-71
2023/11/17 03:55:00;;;;;;;7.70;7.60;;;5.00;99.90;;;;;;5001303;28;20562;-71
2023/11/17 03:57:27;;;;;;;8.70;8.60;;;5.00;99.90;;;;;;5000189;28;21073;-71
2023/11/17 03:59:57;;;;;;;8.37;8.27;;;5.10;99.90;;;;;;5009314;28;20457;-71
2023/11/17 04:02:24;;;;;;;7.87;7.77;;;5.20;99.90;;;;;;5001266;28;20472;-71
2023/11/17 04:04:50;;;;;;;8.20;8.10;;;5.20;99.90;;;;;;5002959;28;20983;-69
2023/11/17 04:07:17;;;;;;;7.30;7.20;;;5.30;99.90;;;;;;5005875;28;20484;-70
2023/11/17 04:09:47;;;;;;;7.27;7.17;;;5.30;99.90;;;;;;5006395;28;20527;-69
2023/11/17 04:12:15;;;;;;;7.40;7.30;;;5.30;99.90;;;;;;5008777;28;20462;-68
2023/11/17 04:14:45;;;;;;;6.77;6.67;;;5.30;99.90;;;;;;5023356;28;20470;-69
2023/11/17 04:17:12;;;;;;;6.97;6.87;;;5.30;99.90;;;;;;5006595;28;20472;-70
2023/11/17 04:19:41;;;;;;;6.40;6.30;;;5.20;99.90;;;;;;4996983;28;20504;-68
2023/11/17 04:22:09;;;;;;;6.70;6.60;;;5.20;99.90;;;;;;5008230;28;20462;-69
2023/11/17 04:24:36;;;;;;;7.00;6.90;;;5.30;99.90;;;;;;4998243;28;20963;-69
2023/11/17 04:27:06;;;;;;;7.43;7.33;;;5.30;99.90;;;;;;5007402;28;20495;-71
2023/11/17 04:29:32;;;;;;;7.00;6.90;;;5.40;99.90;;;;;;4992448;28;20516;-71
2023/11/17 04:32:00;;;;;;;7.37;7.27;;;5.50;99.90;;;;;;4999030;28;20470;-71
2023/11/17 04:34:27;;;;;;;8.27;8.17;;;5.50;99.90;;;;;;5006271;28;20956;-71
2023/11/17 04:36:54;;;;;;;6.87;6.77;;;5.60;99.90;;;;;;5004898;28;20519;-69
2023/11/17 04:39:36;;;;;;;7.50;7.40;;;5.50;99.90;;;;;;5006439;28;20462;-72
2023/11/17 04:42:04;;;;;;;7.73;7.63;;;5.60;99.90;;;;;;4992628;28;20500;-72
2023/11/17 04:44:33;;;;;;;7.00;6.90;;;5.60;99.90;;;;;;4999646;28;20509;-72
2023/11/17 04:46:59;;;;;;;7.50;7.40;;;5.50;99.90;;;;;;5004971;28;20785;-70
2023/11/17 04:49:27;;;;;;;7.90;7.80;;;5.50;99.90;;;;;;5001015;28;20469;-71
2023/11/17 04:51:54;;;;;;;7.60;7.50;;;5.60;99.90;;;;;;5007904;28;20469;-70
2023/11/17 04:54:22;;;;;;;7.87;7.77;;;5.60;99.90;;;;;;5003597;28;21279;-70
2023/11/17 04:56:49;;;;;;;7.80;7.70;;;5.70;99.90;;;;;;5000287;28;20464;-71
2023/11/17 04:59:17;;;;;;;7.67;7.57;;;5.70;99.90;;;;;;5007737;28;20466;-71
2023/11/17 05:01:44;;;;;;;8.43;8.33;;;5.70;99.90;;;;;;4997108;28;20469;-72
2023/11/17 05:04:13;;;;;;;8.80;8.70;;;5.80;99.90;;;;;;5000995;28;20456;-71
2023/11/17 05:06:42;;;;;;;9.20;9.00;;;5.80;99.90;;;;;;5000831;28;20549;-72
2023/11/17 05:09:11;;;;;;;10.00;9.80;;;5.80;99.90;;;;;;5006015;28;20458;-70
2023/11/17 05:11:38;;;;;;;10.20;10.00;;;5.90;99.90;;;;;;5003116;28;20469;-71
2023/11/17 05:14:06;;;;;;;9.63;9.43;;;5.90;99.90;;;;;;5028594;28;20489;-72
2023/11/17 05:16:35;;;;;;;11.40;11.10;;;5.80;99.90;;;;;;5004575;28;20478;-69
2023/11/17 05:19:03;;;;;;;11.33;11.03;;;5.90;99.90;;;;;;4994451;28;20483;-72
2023/11/17 05:21:31;;;;;;;10.53;10.33;;;6.00;99.90;;;;;;4992673;28;20469;-72
2023/11/17 05:23:58;;;;;;;10.37;10.17;;;6.00;99.90;;;;;;5002832;28;20480;-72
2023/11/17 05:26:25;;;;;;;10.07;9.87;;;5.90;99.90;;;;;;5006181;28;20477;-70
2023/11/17 05:28:52;;;;;;;11.13;10.83;;;5.80;99.90;;;;;;4992767;28;20936;-70
2023/11/17 05:31:20;;;;;;;11.10;10.87;;;5.80;99.90;;;;;;4994259;28;20477;-72
2023/11/17 05:33:48;;;;;;;10.47;10.27;;;5.80;99.90;;;;;;5006593;28;20462;-70
2023/11/17 05:36:16;;;;;;;10.90;10.70;;;5.80;99.90;;;;;;5005407;28;20454;-70
2023/11/17 05:38:43;;;;;;;10.30;10.10;;;5.70;99.90;;;;;;4989453;28;20466;-71
2023/11/17 05:41:11;;;;;;;10.83;10.63;;;5.60;99.90;;;;;;4991198;28;20459;-72
2023/11/17 05:43:37;;;;;;;11.53;11.23;;;5.70;99.90;;;;;;5004557;28;20608;-71
2023/11/17 05:46:05;;;;;;;11.57;11.27;;;5.70;99.90;;;;;;5026253;28;20880;-72
2023/11/17 05:48:32;;;;;;;11.93;11.63;;;5.70;99.90;;;;;;5002757;28;20493;-71
2023/11/17 05:51:05;;;;;;;10.80;10.60;;;5.70;99.90;;;;;;4998660;28;20458;-71
2023/11/17 05:53:32;;;;;;;10.43;10.23;;;5.70;99.90;;;;;;5000268;28;20471;-70
2023/11/17 05:56:02;;;;;;;11.47;11.17;;;5.60;99.90;;;;;;4992780;28;20874;-71
2023/11/17 05:58:29;;;;;;;11.33;11.07;;;5.60;99.90;;;;;;5003833;28;20907;-71
2023/11/17 06:00:56;;;;;;;12.40;12.10;;;5.70;99.90;;;;;;5005845;28;20462;-72
2023/11/17 06:03:23;;;;;;;11.73;11.43;;;5.70;99.90;;;;;;5002417;28;20469;-69
2023/11/17 06:05:49;;;;;;;11.17;10.97;;;5.70;99.90;;;;;;5005218;28;20910;-72
2023/11/17 06:08:18;;;;;;;11.00;10.80;;;5.70;99.90;;;;;;4998968;28;21037;-70
2023/11/17 06:10:45;;;;;;;12.23;11.93;;;5.60;99.90;;;;;;4995985;28;21048;-72
2023/11/17 06:13:14;;;;;;;12.57;12.27;;;5.60;99.90;;;;;;5029023;28;20458;-70
2023/11/17 06:15:41;;;;;;;12.83;12.53;;;5.60;99.90;;;;;;4998293;28;20822;-70
2023/11/17 06:18:08;;;;;;;13.60;13.20;;;5.60;99.90;;;;;;5029924;28;20450;-71
2023/11/17 06:20:35;;;;;;;12.23;11.93;;;5.60;99.90;;;;;;5010319;28;20627;-71
2023/11/17 06:23:02;;;;;;;12.53;12.23;;;5.50;99.90;;;;;;5008406;28;20480;-72
2023/11/17 06:25:32;;;;;;;12.60;12.30;;;5.50;99.90;;;;;;4988372;28;20730;-72
2023/11/17 06:27:59;;;;;;;13.40;13.00;;;5.40;99.90;;;;;;5003276;28;20566;-71
2023/11/17 06:30:26;;;;;;;13.10;12.80;;;5.40;99.90;;;;;;4992660;28;20466;-73
2023/11/17 06:32:53;;;;;;;14.00;13.60;;;5.40;99.90;;;;;;5005741;28;20835;-72
2023/11/17 06:35:19;;;;;;;13.97;13.57;;;5.40;99.90;;;;;;5000042;28;20469;-71
2023/11/17 06:37:46;;;;;;;13.43;13.03;;;5.50;99.90;;;;;;5001896;28;20511;-71
2023/11/17 06:40:15;;;;;;;12.83;12.53;;;5.40;99.90;;;;;;5001182;28;20461;-70
2023/11/17 06:42:44;;;;;;;13.77;13.37;;;5.30;99.90;;;;;;4989749;28;20478;-70
2023/11/17 06:45:12;;;;;;;13.33;12.93;;;5.30;99.90;;;;;;5027176;28;20450;-70
2023/11/17 06:47:41;;;;;;;13.13;12.73;;;5.30;99.90;;;;;;5004721;28;20987;-71
2023/11/17 06:50:11;;;;;;;14.07;13.67;;;5.30;99.90;;;;;;5043719;28;20470;-72
2023/11/17 06:52:41;;;;;;;14.03;13.63;;;5.30;99.90;;;;;;5004430;28;21002;-72
2023/11/17 06:55:09;;;;;;;14.90;14.40;;;5.30;99.90;;;;;;5003053;28;20486;-69
2023/11/17 06:57:52;;;;;;;12.93;12.63;;;5.40;99.90;;;;;;4998095;28;20462;-72
2023/11/17 07:00:22;;;;;;;13.63;13.23;;;5.30;99.90;;;;;;5003589;28;20481;-71
2023/11/17 07:02:49;;;;;;;13.80;13.40;;;5.30;99.90;;;;;;4993458;28;20482;-72
2023/11/17 07:05:17;;;;;;;14.17;13.77;;;5.30;99.90;;;;;;4999635;28;20566;-70
2023/11/17 07:07:44;;;;;;;13.50;13.10;;;5.40;99.90;;;;;;5004362;28;20505;-72
2023/11/17 07:10:14;;;;;;;13.17;12.77;;;5.50;99.90;;;;;;4998770;28;20463;-69
2023/11/17 07:12:42;;;;;;;12.47;12.17;;;5.40;99.90;;;;;;5002970;28;20465;-71
2023/11/17 07:15:11;;;;;;;12.73;12.43;;;5.40;99.90;;;;;;4999836;28;20492;-71
2023/11/17 07:17:42;;;;;;;12.17;11.87;;;5.40;99.90;;;;;;5004664;28;20561;-71
2023/11/17 07:20:11;;;;;;;13.57;13.17;;;5.50;99.90;;;;;;4999143;28;20465;-70
2023/11/17 07:22:39;;;;;;;13.03;12.73;;;5.50;99.90;;;;;;4999459;28;20467;-69
2023/11/17 07:25:06;;;;;;;13.03;12.73;;;5.60;99.90;;;;;;5004717;28;21025;-69
2023/11/17 07:27:33;;;;;;;13.60;13.20;;;5.70;99.90;;;;;;5004466;28;20581;-70
2023/11/17 07:30:02;;;;;;;13.70;13.30;;;5.70;99.90;;;;;;5013639;28;20561;-70
2023/11/17 07:32:30;;;;;;;13.83;13.43;;;5.80;99.90;;;;;;5002210;28;20467;-72
2023/11/17 07:34:58;;;;;;;13.57;13.17;;;5.80;99.90;;;;;;4996371;28;20546;-71
2023/11/17 07:37:25;;;;;;;13.47;13.07;;;5.80;99.90;;;;;;4996616;28;20480;-72
2023/11/17 07:39:52;;;;;;;13.57;13.17;;;5.80;99.90;;;;;;5004374;28;20873;-73
2023/11/17 07:42:19;;;;;;;12.67;12.37;;;5.90;99.90;;;;;;5000044;28;20466;-70
2023/11/17 07:44:46;;;;;;;12.83;12.53;;;5.90;99.90;;;;;;5004137;28;20488;-73
2023/11/17 07:47:12;;;;;;;13.53;13.13;;;5.90;99.90;;;;;;5001548;28;20455;-70
2023/11/17 07:49:39;;;;;;;12.83;12.53;;;6.10;99.90;;;;;;4996634;28;20498;-71
2023/11/17 07:52:08;;;;;;;14.47;14.07;;;6.20;99.90;;;;;;4999096;28;20832;-70
2023/11/17 07:54:35;;;;;;;13.90;13.50;;;6.30;99.90;;;;;;5004132;28;20470;-71
2023/11/17 07:57:02;;;;;;;12.87;12.57;;;6.40;99.90;;;;;;4993095;28;20681;-71
2023/11/17 07:59:30;;;;;;;12.53;12.23;;;6.40;99.90;;;;;;5002558;28;20462;-72
2023/11/17 08:01:57;;;;;;;13.40;13.00;;;6.40;99.90;;;;;;5000763;28;20831;-73
2023/11/17 08:04:24;;;;;;;12.33;12.03;;;6.40;99.90;;;;;;4995949;28;20462;-70
2023/11/17 08:06:53;;;;;;;12.83;12.47;;;6.40;99.90;;;;;;4987434;28;20502;-71
2023/11/17 08:09:22;;;;;;;13.57;13.17;;;6.50;99.90;;;;;;4995020;28;20494;-72
2023/11/17 08:11:49;;;;;;;12.67;12.37;;;6.60;99.90;;;;;;4992380;28;20468;-70
2023/11/17 08:14:15;;;;;;;12.67;12.37;;;6.60;99.90;;;;;;4999814;28;20557;-73
2023/11/17 08:16:42;;;;;;;10.83;10.63;;;6.60;99.90;;;;;;4997066;28;20467;-69
2023/11/17 08:19:09;;;;;;;12.77;12.47;;;6.60;99.90;;;;;;4998387;28;20468;-72
2023/11/17 08:21:37;;;;;;;13.07;12.67;;;6.60;99.90;;;;;;4992489;28;20490;-70
2023/11/17 08:24:06;;;;;;;12.67;12.37;;;6.70;99.90;;;;;;4989907;28;20772;-71
2023/11/17 08:26:36;;;;;;;11.80;11.50;;;6.80;99.90;;;;;;4996180;28;20506;-70
2023/11/17 08:29:03;;;;;;;12.63;12.30;;;6.80;99.90;;;;;;4995811;28;20496;-71
2023/11/17 08:31:32;;;;;;;12.57;12.27;;;6.80;99.90;;;;;;4996296;28;21167;-69
2023/11/17 08:34:00;;;;;;;12.80;12.50;;;6.80;99.90;;;;;;4994443;28;21080;-71
2023/11/17 08:36:28;;;;;;;12.53;12.23;;;6.80;99.90;;;;;;4996012;28;20960;-69
2023/11/17 08:38:56;;;;;;;13.20;12.80;;;6.80;99.90;;;;;;4990263;28;20487;-70
2023/11/17 08:41:24;;;;;;;13.00;12.60;;;6.80;99.90;;;;;;4993074;28;20838;-69
2023/11/17 08:43:53;;;;;;;13.13;12.73;;;6.80;99.90;;;;;;4992536;28;20493;-69
2023/11/17 08:46:23;;;;;;;13.87;13.47;;;6.80;99.90;;;;;;4995960;28;20806;-72
2023/11/17 08:48:52;;;;;;;13.90;13.50;;;6.80;99.90;;;;;;4991182;28;20890;-69
2023/11/17 08:51:20;;;;;;;16.27;15.67;;;6.80;99.90;;;;;;4995654;28;20617;-70
2023/11/17 08:53:47;;;;;;;16.30;15.70;;;6.80;99.90;;;;;;4993859;28;20550;-70
2023/11/17 08:56:14;;;;;;;16.20;15.60;;;6.90;99.90;;;;;;4993565;28;20890;-70
2023/11/17 08:58:41;;;;;;;15.60;15.00;;;6.80;99.90;;;;;;4990090;28;20474;-69
2023/11/17 09:01:09;;;;;;;16.70;16.10;;;6.60;99.90;;;;;;4995921;28;20547;-69
2023/11/17 09:03:36;;;;;;;16.37;15.77;;;6.70;99.90;;;;;;5002298;28;20474;-70
2023/11/17 09:06:03;;;;;;;16.23;15.63;;;6.80;99.90;;;;;;4994744;28;20474;-70
2023/11/17 09:08:31;;;;;;;16.60;16.00;;;6.70;99.90;;;;;;4995928;28;20490;-70
2023/11/17 09:10:58;;;;;;;17.80;17.10;;;6.70;99.90;;;;;;4993622;28;20549;-69
2023/11/17 09:13:25;;;;;;;17.23;16.53;;;6.80;99.90;;;;;;4991961;28;20473;-69
2023/11/17 09:15:53;;;;;;;16.80;16.10;;;6.80;99.90;;;;;;4997107;28;20553;-69
2023/11/17 09:18:22;;;;;;;16.00;15.40;;;6.90;99.90;;;;;;4994543;28;20832;-69
2023/11/17 09:20:49;;;;;;;16.53;15.93;;;7.00;99.90;;;;;;4994692;28;20462;-70
2023/11/17 09:23:17;;;;;;;16.60;15.90;;;7.00;99.90;;;;;;4996902;28;20526;-68
2023/11/17 09:25:44;;;;;;;16.00;15.40;;;7.10;99.90;;;;;;4990474;28;20467;-69
2023/11/17 09:28:11;;;;;;;15.43;14.90;;;7.10;99.90;;;;;;4997578;28;20481;-70
2023/11/17 09:30:39;;;;;;;15.97;15.37;;;7.10;99.90;;;;;;4992649;28;20482;-71
2023/11/17 09:33:08;;;;;;;16.17;15.53;;;7.10;99.90;;;;;;4994257;28;20458;-70
2023/11/17 09:35:49;;;;;;;15.47;14.87;;;7.30;99.90;;;;;;4990928;28;20540;-72
2023/11/17 09:38:20;;;;;;;15.50;14.90;;;7.30;99.90;;;;;;4986875;28;20520;-71
2023/11/17 09:40:47;;;;;;;15.90;15.30;;;7.30;99.90;;;;;;4994238;28;20523;-70
2023/11/17 09:43:19;;;;;;;15.33;14.73;;;7.40;99.90;;;;;;4994495;28;20551;-70
2023/11/17 09:45:46;;;;;;;14.97;14.47;;;7.40;99.90;;;;;;4998743;28;20477;-70
2023/11/17 09:51:02;;;;;;;16.40;15.70;;;7.50;99.90;;;;;;4995658;28;20467;-70
2023/11/17 09:53:33;;;;;;;14.97;14.37;;;7.50;99.90;;;;;;4988716;28;20543;-71
2023/11/17 09:56:02;;;;;;;15.47;14.87;;;7.40;99.90;;;;;;4994569;28;20475;-70
2023/11/17 09:58:30;;;;;;;15.37;14.77;;;7.50;99.90;;;;;;4993242;28;20980;-71
2023/11/17 10:00:59;;;;;;;15.00;14.40;;;7.50;99.90;;;;;;4995330;28;20470;-70
2023/11/17 10:03:29;;;;;;;15.03;14.43;;;7.50;99.90;;;;;;4996682;28;20466;-71
2023/11/17 10:06:04;;;;;;;14.60;14.10;;;7.50;99.90;;;;;;4997242;28;20540;-72
2023/11/17 10:08:32;;;;;;;15.60;15.00;;;7.50;99.90;;;;;;4999149;28;20496;-70
2023/11/17 10:10:59;;;;;;;15.00;14.40;;;7.60;99.90;;;;;;4995858;28;20987;-72
2023/11/17 10:13:31;;;;;;;15.00;14.40;;;7.60;99.90;;;;;;4996890;28;20825;-72
2023/11/17 10:16:01;;;;;;;14.97;14.37;;;7.60;99.90;;;;;;4997645;28;20466;-71
2023/11/17 10:18:29;;;;;;;14.07;13.57;;;7.50;99.90;;;;;;5003278;28;20463;-70
2023/11/17 10:20:58;;;;;;;15.30;14.70;;;7.40;99.90;;;;;;5004268;28;20472;-71
2023/11/17 10:23:25;;;;;;;14.43;13.93;;;7.50;99.90;;;;;;4993841;28;20920;-72
2023/11/17 10:25:54;;;;;;;14.93;14.33;;;7.50;99.90;;;;;;4990975;28;21034;-72
2023/11/17 10:28:21;;;;;;;15.23;14.63;;;7.50;99.90;;;;;;5002544;28;20478;-72
2023/11/17 10:30:50;;;;;;;14.97;14.37;;;7.50;99.90;;;;;;5003212;28;20824;-70
2023/11/17 10:33:24;;;;;;;14.73;14.13;;;7.50;99.90;;;;;;4994151;28;20470;-71
2023/11/17 10:36:02;;;;;;;15.20;14.60;;;7.30;99.90;;;;;;5000253;28;20470;-72
2023/11/17 10:38:29;;;;;;;14.90;14.30;;;7.40;99.90;;;;;;4998890;28;20469;-71
2023/11/17 10:41:13;;;;;;;14.53;13.97;;;7.40;99.90;;;;;;4991670;28;20477;-72
2023/11/17 10:43:48;;;;;;;15.47;14.87;;;7.40;99.90;;;;;;4995507;28;20845;-72
2023/11/17 10:46:19;;;;;;;15.73;15.03;;;7.40;99.90;;;;;;4998871;28;20470;-71
2023/11/17 10:48:47;;;;;;;15.30;14.70;;;7.50;99.90;;;;;;5005170;28;20494;-73
2023/11/17 10:51:18;;;;;;;14.97;14.37;;;7.60;99.90;;;;;;4996525;28;20527;-72
2023/11/17 10:54:03;;;;;;;15.17;14.57;;;7.50;99.90;;;;;;4993150;28;20564;-72
2023/11/17 10:56:30;;;;;;;15.57;14.90;;;7.60;99.90;;;;;;4993687;28;20493;-73
2023/11/17 10:58:58;;;;;;;15.30;14.70;;;7.50;99.90;;;;;;5001766;28;20825;-70
2023/11/17 11:01:30;;;;;;;15.10;14.50;;;7.50;99.90;;;;;;5001351;28;20553;-72
2023/11/17 11:03:58;;;;;;;14.77;14.17;;;7.60;99.90;;;;;;4994805;28;20624;-71
2023/11/17 11:06:27;;;;;;;14.23;13.73;;;7.60;99.90;;;;;;4988669;28;20471;-72
2023/11/17 11:08:54;;;;;;;14.57;14.07;;;7.60;99.90;;;;;;4991134;28;20874;-72
2023/11/17 11:11:23;;;;;;;13.30;12.90;;;7.70;99.90;;;;;;4994415;28;20477;-71
2023/11/17 11:13:54;;;;;;;14.80;14.20;;;7.60;99.90;;;;;;5001356;28;20561;-70
2023/11/17 11:16:21;;;;;;;14.13;13.63;;;7.70;99.90;;;;;;4997056;28;20569;-71
2023/11/17 11:18:51;;;;;;;14.27;13.77;;;7.70;99.90;;;;;;4994262;28;20467;-72
2023/11/17 11:21:19;;;;;;;13.93;13.43;;;7.70;99.90;;;;;;5004274;28;20466;-73
2023/11/17 11:23:49;;;;;;;13.93;13.43;;;7.60;99.90;;;;;;4992557;28;20490;-71
2023/11/17 11:26:17;;;;;;;14.47;13.87;;;7.60;99.90;;;;;;4990122;28;20621;-71
2023/11/17 11:28:45;;;;;;;14.60;14.00;;;7.70;99.90;;;;;;4997026;28;21046;-72
2023/11/17 11:31:12;;;;;;;15.47;14.77;;;7.70;99.90;;;;;;4999395;28;20474;-70
2023/11/17 11:33:39;;;;;;;14.70;14.10;;;7.90;99.90;;;;;;4997483;28;21044;-71
2023/11/17 11:36:10;;;;;;;15.10;14.50;;;8.10;99.90;;;;;;5000462;28;20474;-70
2023/11/17 11:38:38;;;;;;;16.10;15.40;;;8.20;99.90;;;;;;4996813;28;20809;-70
2023/11/17 11:41:11;;;;;;;16.20;15.50;;;8.50;99.90;;;;;;4995272;28;20475;-71
2023/11/17 11:43:39;;;;;;;15.47;14.77;;;8.80;99.90;;;;;;4990954;28;21016;-70
2023/11/17 11:46:07;;;;;;;16.47;15.77;;;9.00;99.90;;;;;;5000677;28;20471;-72
2023/11/17 11:48:37;;;;;;;16.73;16.00;;;9.10;99.90;;;;;;4997507;28;22316;-71
2023/11/17 11:51:08;;;;;;;16.30;15.60;;;9.30;99.90;;;;;;5000283;28;20463;-72
2023/11/17 11:53:38;;;;;;;16.10;15.40;;;9.50;99.90;;;;;;4996197;28;20762;-71
2023/11/17 11:56:11;;;;;;;16.27;15.57;;;9.60;99.90;;;;;;4997561;28;20466;-72
2023/11/17 11:58:43;;;;;;;16.73;16.03;;;9.50;99.90;;;;;;4999200;28;20987;-71
2023/11/17 12:01:12;;;;;;;16.57;15.87;;;9.60;99.90;;;;;;5002737;28;20465;-70
2023/11/17 12:03:47;;;;;;;16.30;15.60;;;9.70;99.90;;;;;;5000069;28;20515;-71
2023/11/17 12:06:21;;;;;;;17.27;16.47;;;9.40;99.90;;;;;;5003437;28;20565;-74
2023/11/17 12:08:55;;;;;;;16.90;16.10;;;9.20;99.90;;;;;;4997827;28;20546;-72
2023/11/17 12:11:23;;;;;;;17.27;16.47;;;9.10;99.90;;;;;;5004610;28;20466;-71
2023/11/17 12:13:52;;;;;;;17.40;16.60;;;9.20;99.90;;;;;;5002252;28;20542;-70
2023/11/17 12:16:21;;;;;;;17.70;16.90;;;9.20;99.90;;;;;;4993729;28;21035;-69
2023/11/17 12:18:52;;;;;;;17.00;16.20;;;9.10;99.90;;;;;;5002277;28;20837;-72
2023/11/17 12:21:21;;;;;;;17.10;16.30;;;8.90;99.90;;;;;;4998479;28;20462;-70
2023/11/17 12:23:50;;;;;;;16.47;15.77;;;8.90;99.90;;;;;;4994071;28;20463;-70
2023/11/17 12:26:19;;;;;;;17.17;16.37;;;8.70;99.90;;;;;;5000097;28;20815;-72
2023/11/17 12:28:48;;;;;;;15.83;15.13;;;8.70;99.90;;;;;;4997320;28;20499;-69
2023/11/17 12:31:15;;;;;;;16.20;15.50;;;8.60;99.90;;;;;;4994180;28;20469;-72
2023/11/17 12:33:43;;;;;;;15.83;15.13;;;8.60;99.90;;;;;;5005489;28;20474;-69
2023/11/17 12:36:13;;;;;;;16.67;15.87;;;8.60;99.90;;;;;;4995613;28;20828;-70
2023/11/17 12:38:41;;;;;;;15.93;15.23;;;8.70;99.90;;;;;;4999523;28;21015;-70
2023/11/17 12:41:09;;;;;;;15.37;14.77;;;8.70;99.90;;;;;;5000914;28;20586;-72
2023/11/17 12:43:38;;;;;;;15.17;14.57;;;8.80;99.90;;;;;;4995504;28;20494;-71
2023/11/17 12:46:08;;;;;;;15.60;15.00;;;8.80;99.90;;;;;;5003377;28;20474;-69
2023/11/17 12:48:38;;;;;;;15.53;14.87;;;8.90;99.90;;;;;;4998559;28;20483;-70
2023/11/17 12:51:05;;;;;;;15.43;14.77;;;9.00;99.90;;;;;;4990333;28;20976;-72
2023/11/17 12:53:40;;;;;;;15.83;15.13;;;9.10;99.90;;;;;;4997090;28;20466;-70
2023/11/17 12:56:08;;;;;;;16.33;15.60;;;9.30;99.90;;;;;;4993279;28;20465;-70